sensor_id;sensor_type;location;lat;lon;timestamp;P1;durP1;ratioP1;P2;durP2;ratioP2
61385;SDS011;47256;18.904;-99.054;2024-03-23T00:52:47;16.23;;;7.60;;
61385;SDS011;47256;18.904;-99.054;2024-03-23T00:55:14;16.83;;;7.05;;
61385;SDS011;47256;18.904;-99.054;2024-03-23T00:57:42;15.02;;;7.50;;
61385;SDS011;47256;18.904;-99.054;2024-03-23T01:00:10;18.13;;;8.20;;
61385;SDS011;47256;18.904;-99.054;2024-03-23T01:02:39;14.10;;;7.97;;
61385;SDS011;47256;18.904;-99.054;2024-03-23T01:05:07;21.60;;;10.93;;
61385;SDS011;47256;18.904;-99.054;2024-03-23T01:07:35;20.77;;;10.57;;
61385;SDS011;47256;18.904;-99.054;2024-03-23T01:10:03;18.45;;;8.48;;
61385;SDS011;47256;18.904;-99.054;2024-03-23T01:12:31;14.20;;;8.00;;
61385;SDS011;47256;18.904;-99.054;2024-03-23T01:14:59;12.63;;;7.25;;
61385;SDS011;47256;18.904;-99.054;2024-03-23T01:17:27;19.20;;;10.50;;
61385;SDS011;47256;18.904;-99.054;2024-03-23T01:19:54;34.65;;;13.77;;
61385;SDS011;47256;18.904;-99.054;2024-03-23T01:22:22;36.45;;;14.55;;
61385;SDS011;47256;18.904;-99.054;2024-03-23T01:24:49;33.70;;;15.85;;
61385;SDS011;47256;18.904;-99.054;2024-03-23T01:27:16;29.42;;;14.63;;
61385;SDS011;47256;18.904;-99.054;2024-03-23T01:29:44;29.42;;;13.73;;
61385;SDS011;47256;18.904;-99.054;2024-03-23T01:32:12;28.40;;;13.50;;
61385;SDS011;47256;18.904;-99.054;2024-03-23T01:34:39;17.73;;;11.25;;
61385;SDS011;47256;18.904;-99.054;2024-03-23T01:37:06;19.75;;;10.25;;
61385;SDS011;47256;18.904;-99.054;2024-03-23T01:39:33;20.20;;;10.63;;
61385;SDS011;47256;18.904;-99.054;2024-03-23T01:42:01;20.02;;;10.10;;
61385;SDS011;47256;18.904;-99.054;2024-03-23T01:44:30;18.52;;;8.57;;
61385;SDS011;47256;18.904;-99.054;2024-03-23T01:46:58;15.77;;;8.90;;
61385;SDS011;47256;18.904;-99.054;2024-03-23T01:49:25;22.25;;;9.70;;
61385;SDS011;47256;18.904;-99.054;2024-03-23T01:51:53;27.27;;;10.73;;
61385;SDS011;47256;18.904;-99.054;2024-03-23T01:54:22;31.40;;;9.98;;
61385;SDS011;47256;18.904;-99.054;2024-03-23T01:56:50;25.65;;;9.00;;
61385;SDS011;47256;18.904;-99.054;2024-03-23T01:59:19;24.10;;;9.65;;
61385;SDS011;47256;18.904;-99.054;2024-03-23T02:01:47;26.73;;;10.50;;
61385;SDS011;47256;18.904;-99.054;2024-03-23T02:04:14;32.08;;;9.45;;
61385;SDS011;47256;18.904;-99.054;2024-03-23T02:06:42;22.85;;;9.95;;
61385;SDS011;47256;18.904;-99.054;2024-03-23T02:09:09;24.05;;;9.20;;
61385;SDS011;47256;18.904;-99.054;2024-03-23T02:11:36;27.15;;;10.15;;
61385;SDS011;47256;18.904;-99.054;2024-03-23T02:14:04;27.27;;;10.52;;
61385;SDS011;47256;18.904;-99.054;2024-03-23T02:16:34;26.30;;;9.07;;
61385;SDS011;47256;18.904;-99.054;2024-03-23T02:19:02;30.13;;;11.20;;
61385;SDS011;47256;18.904;-99.054;2024-03-23T02:21:30;27.38;;;10.32;;
61385;SDS011;47256;18.904;-99.054;2024-03-23T02:23:59;32.13;;;11.98;;
61385;SDS011;47256;18.904;-99.054;2024-03-23T02:26:26;30.10;;;9.02;;
61385;SDS011;47256;18.904;-99.054;2024-03-23T02:28:54;29.33;;;9.60;;
61385;SDS011;47256;18.904;-99.054;2024-03-23T02:31:21;32.38;;;11.20;;
61385;SDS011;47256;18.904;-99.054;2024-03-23T02:33:49;22.33;;;10.45;;
61385;SDS011;47256;18.904;-99.054;2024-03-23T02:36:16;25.95;;;9.15;;
61385;SDS011;47256;18.904;-99.054;2024-03-23T02:38:43;27.35;;;11.15;;
61385;SDS011;47256;18.904;-99.054;2024-03-23T02:41:11;30.40;;;10.98;;
61385;SDS011;47256;18.904;-99.054;2024-03-23T02:43:40;21.27;;;11.00;;
61385;SDS011;47256;18.904;-99.054;2024-03-23T02:46:08;29.02;;;10.93;;
61385;SDS011;47256;18.904;-99.054;2024-03-23T02:48:35;32.63;;;12.13;;
61385;SDS011;47256;18.904;-99.054;2024-03-23T02:51:02;33.50;;;13.00;;
61385;SDS011;47256;18.904;-99.054;2024-03-23T02:53:34;37.63;;;12.32;;
61385;SDS011;47256;18.904;-99.054;2024-03-23T02:56:01;23.95;;;12.32;;
61385;SDS011;47256;18.904;-99.054;2024-03-23T02:58:29;29.25;;;11.38;;
61385;SDS011;47256;18.904;-99.054;2024-03-23T03:00:56;30.02;;;12.80;;
61385;SDS011;47256;18.904;-99.054;2024-03-23T03:03:25;28.40;;;11.88;;
61385;SDS011;47256;18.904;-99.054;2024-03-23T03:05:55;30.50;;;11.82;;
61385;SDS011;47256;18.904;-99.054;2024-03-23T03:08:23;26.60;;;12.02;;
61385;SDS011;47256;18.904;-99.054;2024-03-23T03:10:50;30.42;;;13.80;;
61385;SDS011;47256;18.904;-99.054;2024-03-23T03:13:20;31.92;;;12.20;;
61385;SDS011;47256;18.904;-99.054;2024-03-23T03:15:47;28.92;;;11.05;;
61385;SDS011;47256;18.904;-99.054;2024-03-23T03:18:16;41.70;;;14.38;;
61385;SDS011;47256;18.904;-99.054;2024-03-23T03:20:43;71.60;;;30.67;;
61385;SDS011;47256;18.904;-99.054;2024-03-23T03:23:12;72.90;;;32.75;;
61385;SDS011;47256;18.904;-99.054;2024-03-23T03:25:39;23.60;;;12.07;;
61385;SDS011;47256;18.904;-99.054;2024-03-23T03:28:08;33.53;;;14.70;;
61385;SDS011;47256;18.904;-99.054;2024-03-23T03:30:35;31.45;;;12.15;;
61385;SDS011;47256;18.904;-99.054;2024-03-23T03:33:04;56.22;;;13.23;;
61385;SDS011;47256;18.904;-99.054;2024-03-23T03:35:31;49.58;;;16.88;;
61385;SDS011;47256;18.904;-99.054;2024-03-23T03:37:59;49.53;;;17.20;;
61385;SDS011;47256;18.904;-99.054;2024-03-23T03:40:26;55.42;;;18.92;;
61385;SDS011;47256;18.904;-99.054;2024-03-23T03:42:53;48.75;;;21.30;;
61385;SDS011;47256;18.904;-99.054;2024-03-23T03:45:21;118.30;;;29.15;;
61385;SDS011;47256;18.904;-99.054;2024-03-23T03:47:49;52.92;;;18.52;;
61385;SDS011;47256;18.904;-99.054;2024-03-23T03:50:16;59.53;;;20.05;;
61385;SDS011;47256;18.904;-99.054;2024-03-23T03:52:43;46.80;;;17.83;;
61385;SDS011;47256;18.904;-99.054;2024-03-23T03:55:14;45.60;;;17.75;;
61385;SDS011;47256;18.904;-99.054;2024-03-23T03:57:43;48.83;;;17.08;;
61385;SDS011;47256;18.904;-99.054;2024-03-23T04:00:10;40.20;;;17.98;;
61385;SDS011;47256;18.904;-99.054;2024-03-23T04:02:39;39.40;;;17.33;;
61385;SDS011;47256;18.904;-99.054;2024-03-23T04:05:06;44.50;;;16.63;;
61385;SDS011;47256;18.904;-99.054;2024-03-23T04:07:34;34.47;;;16.35;;
61385;SDS011;47256;18.904;-99.054;2024-03-23T04:10:01;36.25;;;14.88;;
61385;SDS011;47256;18.904;-99.054;2024-03-23T04:12:34;41.13;;;16.33;;
61385;SDS011;47256;18.904;-99.054;2024-03-23T04:15:01;29.77;;;13.90;;
61385;SDS011;47256;18.904;-99.054;2024-03-23T04:17:32;36.83;;;16.35;;
61385;SDS011;47256;18.904;-99.054;2024-03-23T04:20:00;43.03;;;15.15;;
61385;SDS011;47256;18.904;-99.054;2024-03-23T04:22:30;30.20;;;13.98;;
61385;SDS011;47256;18.904;-99.054;2024-03-23T04:24:57;31.38;;;14.52;;
61385;SDS011;47256;18.904;-99.054;2024-03-23T04:27:25;36.42;;;14.02;;
61385;SDS011;47256;18.904;-99.054;2024-03-23T04:29:53;32.85;;;15.05;;
61385;SDS011;47256;18.904;-99.054;2024-03-23T04:32:20;32.03;;;14.43;;
61385;SDS011;47256;18.904;-99.054;2024-03-23T04:34:48;31.55;;;14.13;;
61385;SDS011;47256;18.904;-99.054;2024-03-23T04:37:15;36.75;;;15.50;;
61385;SDS011;47256;18.904;-99.054;2024-03-23T04:39:43;37.78;;;16.25;;
61385;SDS011;47256;18.904;-99.054;2024-03-23T04:42:10;36.95;;;15.77;;
61385;SDS011;47256;18.904;-99.054;2024-03-23T04:44:38;39.92;;;14.95;;
61385;SDS011;47256;18.904;-99.054;2024-03-23T04:47:06;31.30;;;14.02;;
61385;SDS011;47256;18.904;-99.054;2024-03-23T04:49:33;32.75;;;13.50;;
61385;SDS011;47256;18.904;-99.054;2024-03-23T04:52:04;33.83;;;13.88;;
61385;SDS011;47256;18.904;-99.054;2024-03-23T04:54:32;49.28;;;16.85;;
61385;SDS011;47256;18.904;-99.054;2024-03-23T04:57:00;30.67;;;14.70;;
61385;SDS011;47256;18.904;-99.054;2024-03-23T04:59:27;30.42;;;14.80;;
61385;SDS011;47256;18.904;-99.054;2024-03-23T05:01:56;40.22;;;14.45;;
61385;SDS011;47256;18.904;-99.054;2024-03-23T05:04:23;35.47;;;15.48;;
61385;SDS011;47256;18.904;-99.054;2024-03-23T05:06:52;33.88;;;14.30;;
61385;SDS011;47256;18.904;-99.054;2024-03-23T05:09:19;29.23;;;14.07;;
61385;SDS011;47256;18.904;-99.054;2024-03-23T05:11:47;40.70;;;15.07;;
61385;SDS011;47256;18.904;-99.054;2024-03-23T05:14:14;39.22;;;14.85;;
61385;SDS011;47256;18.904;-99.054;2024-03-23T05:16:44;26.67;;;15.02;;
61385;SDS011;47256;18.904;-99.054;2024-03-23T05:19:11;29.05;;;15.02;;
61385;SDS011;47256;18.904;-99.054;2024-03-23T05:21:40;37.38;;;14.63;;
61385;SDS011;47256;18.904;-99.054;2024-03-23T05:24:07;28.00;;;15.38;;
61385;SDS011;47256;18.904;-99.054;2024-03-23T05:26:35;39.05;;;16.02;;
61385;SDS011;47256;18.904;-99.054;2024-03-23T05:29:02;38.40;;;17.30;;
61385;SDS011;47256;18.904;-99.054;2024-03-23T05:31:31;35.47;;;15.20;;
61385;SDS011;47256;18.904;-99.054;2024-03-23T05:33:58;33.30;;;13.88;;
61385;SDS011;47256;18.904;-99.054;2024-03-23T05:36:25;28.00;;;13.45;;
61385;SDS011;47256;18.904;-99.054;2024-03-23T05:38:52;34.92;;;14.18;;
61385;SDS011;47256;18.904;-99.054;2024-03-23T05:41:20;36.85;;;14.27;;
61385;SDS011;47256;18.904;-99.054;2024-03-23T05:43:48;35.72;;;14.50;;
61385;SDS011;47256;18.904;-99.054;2024-03-23T05:46:20;35.63;;;15.07;;
61385;SDS011;47256;18.904;-99.054;2024-03-23T05:48:47;37.85;;;14.43;;
61385;SDS011;47256;18.904;-99.054;2024-03-23T05:51:26;38.50;;;15.52;;
61385;SDS011;47256;18.904;-99.054;2024-03-23T05:53:55;31.25;;;14.43;;
61385;SDS011;47256;18.904;-99.054;2024-03-23T05:56:22;37.22;;;15.30;;
61385;SDS011;47256;18.904;-99.054;2024-03-23T05:58:53;28.10;;;14.55;;
61385;SDS011;47256;18.904;-99.054;2024-03-23T06:01:20;40.65;;;15.98;;
61385;SDS011;47256;18.904;-99.054;2024-03-23T06:03:48;36.15;;;15.63;;
61385;SDS011;47256;18.904;-99.054;2024-03-23T06:06:16;30.45;;;14.68;;
61385;SDS011;47256;18.904;-99.054;2024-03-23T06:08:43;42.28;;;15.13;;
61385;SDS011;47256;18.904;-99.054;2024-03-23T06:11:10;32.90;;;14.13;;
61385;SDS011;47256;18.904;-99.054;2024-03-23T06:13:39;38.10;;;14.63;;
61385;SDS011;47256;18.904;-99.054;2024-03-23T06:16:06;42.88;;;16.05;;
61385;SDS011;47256;18.904;-99.054;2024-03-23T06:18:35;33.60;;;14.65;;
61385;SDS011;47256;18.904;-99.054;2024-03-23T06:21:02;35.35;;;14.60;;
61385;SDS011;47256;18.904;-99.054;2024-03-23T06:23:31;35.58;;;14.82;;
61385;SDS011;47256;18.904;-99.054;2024-03-23T06:25:58;27.75;;;13.75;;
61385;SDS011;47256;18.904;-99.054;2024-03-23T06:28:27;36.42;;;15.43;;
61385;SDS011;47256;18.904;-99.054;2024-03-23T06:30:55;23.67;;;13.75;;
61385;SDS011;47256;18.904;-99.054;2024-03-23T06:33:22;34.13;;;14.77;;
61385;SDS011;47256;18.904;-99.054;2024-03-23T06:35:50;27.05;;;13.57;;
61385;SDS011;47256;18.904;-99.054;2024-03-23T06:38:18;33.13;;;14.05;;
61385;SDS011;47256;18.904;-99.054;2024-03-23T06:40:46;22.67;;;12.80;;
61385;SDS011;47256;18.904;-99.054;2024-03-23T06:43:16;38.28;;;12.25;;
61385;SDS011;47256;18.904;-99.054;2024-03-23T06:45:44;24.88;;;12.15;;
61385;SDS011;47256;18.904;-99.054;2024-03-23T06:48:20;28.10;;;11.77;;
61385;SDS011;47256;18.904;-99.054;2024-03-23T06:50:48;24.63;;;12.27;;
61385;SDS011;47256;18.904;-99.054;2024-03-23T06:53:15;30.27;;;10.75;;
61385;SDS011;47256;18.904;-99.054;2024-03-23T06:55:43;26.58;;;11.82;;
61385;SDS011;47256;18.904;-99.054;2024-03-23T06:58:19;22.10;;;10.52;;
61385;SDS011;47256;18.904;-99.054;2024-03-23T07:00:48;23.85;;;12.85;;
61385;SDS011;47256;18.904;-99.054;2024-03-23T07:03:19;22.00;;;11.10;;
61385;SDS011;47256;18.904;-99.054;2024-03-23T07:05:47;16.45;;;10.70;;
61385;SDS011;47256;18.904;-99.054;2024-03-23T07:08:14;21.88;;;10.40;;
61385;SDS011;47256;18.904;-99.054;2024-03-23T07:10:47;20.48;;;10.32;;
61385;SDS011;47256;18.904;-99.054;2024-03-23T07:13:15;27.05;;;11.35;;
61385;SDS011;47256;18.904;-99.054;2024-03-23T07:15:44;25.98;;;11.50;;
61385;SDS011;47256;18.904;-99.054;2024-03-23T07:18:19;28.33;;;11.73;;
61385;SDS011;47256;18.904;-99.054;2024-03-23T07:20:56;25.98;;;12.52;;
61385;SDS011;47256;18.904;-99.054;2024-03-23T07:23:24;22.92;;;11.00;;
61385;SDS011;47256;18.904;-99.054;2024-03-23T07:26:05;26.60;;;11.73;;
61385;SDS011;47256;18.904;-99.054;2024-03-23T07:28:34;19.15;;;11.43;;
61385;SDS011;47256;18.904;-99.054;2024-03-23T07:31:07;23.35;;;10.57;;
61385;SDS011;47256;18.904;-99.054;2024-03-23T07:33:36;28.02;;;11.32;;
61385;SDS011;47256;18.904;-99.054;2024-03-23T07:36:08;24.48;;;11.50;;
61385;SDS011;47256;18.904;-99.054;2024-03-23T07:38:35;26.95;;;11.60;;
61385;SDS011;47256;18.904;-99.054;2024-03-23T07:43:44;25.33;;;11.30;;
61385;SDS011;47256;18.904;-99.054;2024-03-23T07:46:14;28.38;;;12.75;;
61385;SDS011;47256;18.904;-99.054;2024-03-23T07:48:42;27.42;;;11.48;;
61385;SDS011;47256;18.904;-99.054;2024-03-23T07:51:10;25.63;;;11.75;;
61385;SDS011;47256;18.904;-99.054;2024-03-23T07:53:44;31.73;;;11.52;;
61385;SDS011;47256;18.904;-99.054;2024-03-23T07:56:16;31.33;;;12.80;;
61385;SDS011;47256;18.904;-99.054;2024-03-23T07:58:47;28.27;;;13.43;;
61385;SDS011;47256;18.904;-99.054;2024-03-23T08:01:16;25.42;;;12.02;;
61385;SDS011;47256;18.904;-99.054;2024-03-23T08:03:44;29.80;;;13.70;;
61385;SDS011;47256;18.904;-99.054;2024-03-23T08:06:16;29.23;;;12.93;;
61385;SDS011;47256;18.904;-99.054;2024-03-23T08:08:46;24.77;;;12.80;;
61385;SDS011;47256;18.904;-99.054;2024-03-23T08:11:17;28.20;;;11.73;;
61385;SDS011;47256;18.904;-99.054;2024-03-23T08:13:44;27.77;;;14.20;;
61385;SDS011;47256;18.904;-99.054;2024-03-23T08:16:14;32.17;;;14.70;;
61385;SDS011;47256;18.904;-99.054;2024-03-23T08:18:41;31.98;;;13.70;;
61385;SDS011;47256;18.904;-99.054;2024-03-23T08:21:10;21.77;;;13.27;;
61385;SDS011;47256;18.904;-99.054;2024-03-23T08:23:37;28.67;;;12.52;;
61385;SDS011;47256;18.904;-99.054;2024-03-23T08:26:05;27.67;;;12.65;;
61385;SDS011;47256;18.904;-99.054;2024-03-23T08:28:37;26.60;;;12.80;;
61385;SDS011;47256;18.904;-99.054;2024-03-23T08:31:06;28.48;;;12.77;;
61385;SDS011;47256;18.904;-99.054;2024-03-23T08:33:34;19.88;;;10.57;;
61385;SDS011;47256;18.904;-99.054;2024-03-23T08:36:03;20.90;;;11.38;;
61385;SDS011;47256;18.904;-99.054;2024-03-23T08:38:38;16.85;;;9.63;;
61385;SDS011;47256;18.904;-99.054;2024-03-23T08:41:07;21.02;;;11.63;;
61385;SDS011;47256;18.904;-99.054;2024-03-23T08:43:36;25.38;;;10.75;;
61385;SDS011;47256;18.904;-99.054;2024-03-23T08:46:07;21.38;;;10.68;;
61385;SDS011;47256;18.904;-99.054;2024-03-23T08:48:36;30.80;;;10.75;;
61385;SDS011;47256;18.904;-99.054;2024-03-23T08:51:10;16.40;;;8.50;;
61385;SDS011;47256;18.904;-99.054;2024-03-23T08:53:38;15.45;;;8.23;;
61385;SDS011;47256;18.904;-99.054;2024-03-23T08:56:06;21.27;;;9.75;;
61385;SDS011;47256;18.904;-99.054;2024-03-23T08:58:35;19.83;;;9.05;;
61385;SDS011;47256;18.904;-99.054;2024-03-23T09:01:12;21.98;;;9.23;;
61385;SDS011;47256;18.904;-99.054;2024-03-23T09:03:39;20.25;;;8.95;;
61385;SDS011;47256;18.904;-99.054;2024-03-23T09:06:09;15.85;;;9.20;;
61385;SDS011;47256;18.904;-99.054;2024-03-23T09:08:38;15.95;;;8.25;;
61385;SDS011;47256;18.904;-99.054;2024-03-23T09:11:09;22.15;;;10.07;;
61385;SDS011;47256;18.904;-99.054;2024-03-23T09:13:39;13.10;;;9.10;;
61385;SDS011;47256;18.904;-99.054;2024-03-23T09:16:11;19.00;;;8.77;;
61385;SDS011;47256;18.904;-99.054;2024-03-23T09:18:38;17.90;;;8.25;;
61385;SDS011;47256;18.904;-99.054;2024-03-23T09:21:13;14.82;;;9.15;;
61385;SDS011;47256;18.904;-99.054;2024-03-23T09:23:43;14.88;;;9.35;;
61385;SDS011;47256;18.904;-99.054;2024-03-23T09:26:12;16.70;;;8.55;;
61385;SDS011;47256;18.904;-99.054;2024-03-23T09:28:40;17.08;;;8.90;;
61385;SDS011;47256;18.904;-99.054;2024-03-23T09:31:09;16.65;;;9.52;;
61385;SDS011;47256;18.904;-99.054;2024-03-23T09:33:40;19.80;;;9.50;;
61385;SDS011;47256;18.904;-99.054;2024-03-23T09:36:08;16.65;;;9.13;;
61385;SDS011;47256;18.904;-99.054;2024-03-23T09:38:35;18.25;;;10.02;;
61385;SDS011;47256;18.904;-99.054;2024-03-23T09:41:10;21.52;;;10.50;;
61385;SDS011;47256;18.904;-99.054;2024-03-23T09:43:38;25.05;;;9.20;;
61385;SDS011;47256;18.904;-99.054;2024-03-23T09:46:07;26.35;;;10.60;;
61385;SDS011;47256;18.904;-99.054;2024-03-23T09:48:35;19.45;;;10.32;;
61385;SDS011;47256;18.904;-99.054;2024-03-23T09:51:03;27.63;;;10.65;;
61385;SDS011;47256;18.904;-99.054;2024-03-23T09:53:34;22.40;;;12.02;;
61385;SDS011;47256;18.904;-99.054;2024-03-23T09:56:02;26.50;;;12.32;;
61385;SDS011;47256;18.904;-99.054;2024-03-23T09:58:31;22.75;;;11.20;;
61385;SDS011;47256;18.904;-99.054;2024-03-23T10:00:59;24.73;;;11.63;;
61385;SDS011;47256;18.904;-99.054;2024-03-23T10:03:27;22.45;;;11.45;;
61385;SDS011;47256;18.904;-99.054;2024-03-23T10:06:01;23.50;;;11.50;;
61385;SDS011;47256;18.904;-99.054;2024-03-23T10:08:30;24.10;;;11.05;;
61385;SDS011;47256;18.904;-99.054;2024-03-23T10:11:02;19.65;;;10.55;;
61385;SDS011;47256;18.904;-99.054;2024-03-23T10:13:43;26.27;;;10.68;;
61385;SDS011;47256;18.904;-99.054;2024-03-23T10:16:22;20.63;;;9.90;;
61385;SDS011;47256;18.904;-99.054;2024-03-23T10:18:53;19.92;;;10.48;;
61385;SDS011;47256;18.904;-99.054;2024-03-23T10:21:21;24.25;;;11.45;;
61385;SDS011;47256;18.904;-99.054;2024-03-23T10:23:48;23.20;;;11.73;;
61385;SDS011;47256;18.904;-99.054;2024-03-23T10:26:18;21.88;;;12.10;;
61385;SDS011;47256;18.904;-99.054;2024-03-23T10:28:52;24.70;;;12.32;;
61385;SDS011;47256;18.904;-99.054;2024-03-23T10:31:38;23.58;;;12.15;;
61385;SDS011;47256;18.904;-99.054;2024-03-23T10:34:07;25.08;;;12.70;;
61385;SDS011;47256;18.904;-99.054;2024-03-23T10:36:34;28.35;;;12.55;;
61385;SDS011;47256;18.904;-99.054;2024-03-23T10:39:08;24.88;;;11.68;;
61385;SDS011;47256;18.904;-99.054;2024-03-23T10:41:38;28.58;;;12.48;;
61385;SDS011;47256;18.904;-99.054;2024-03-23T10:44:07;27.27;;;11.18;;
61385;SDS011;47256;18.904;-99.054;2024-03-23T10:46:36;20.50;;;12.48;;
61385;SDS011;47256;18.904;-99.054;2024-03-23T10:49:03;23.60;;;11.63;;
61385;SDS011;47256;18.904;-99.054;2024-03-23T10:51:31;25.38;;;12.40;;
61385;SDS011;47256;18.904;-99.054;2024-03-23T10:53:58;24.17;;;12.25;;
61385;SDS011;47256;18.904;-99.054;2024-03-23T10:56:33;31.67;;;12.85;;
61385;SDS011;47256;18.904;-99.054;2024-03-23T10:59:03;27.48;;;13.65;;
61385;SDS011;47256;18.904;-99.054;2024-03-23T11:01:35;23.90;;;12.55;;
61385;SDS011;47256;18.904;-99.054;2024-03-23T11:04:40;29.60;;;13.77;;
61385;SDS011;47256;18.904;-99.054;2024-03-23T11:09:51;26.52;;;13.73;;
61385;SDS011;47256;18.904;-99.054;2024-03-23T11:14:58;25.65;;;13.15;;
61385;SDS011;47256;18.904;-99.054;2024-03-23T11:17:38;25.02;;;14.48;;
61385;SDS011;47256;18.904;-99.054;2024-03-23T11:20:06;29.92;;;13.07;;
61385;SDS011;47256;18.904;-99.054;2024-03-23T11:25:21;21.85;;;12.18;;
61385;SDS011;47256;18.904;-99.054;2024-03-23T11:27:51;33.88;;;12.00;;
61385;SDS011;47256;18.904;-99.054;2024-03-23T11:30:20;22.77;;;12.98;;
61385;SDS011;47256;18.904;-99.054;2024-03-23T11:32:49;23.23;;;12.48;;
61385;SDS011;47256;18.904;-99.054;2024-03-23T11:38:10;21.67;;;11.63;;
61385;SDS011;47256;18.904;-99.054;2024-03-23T11:40:44;28.02;;;12.02;;
61385;SDS011;47256;18.904;-99.054;2024-03-23T11:43:13;26.42;;;12.32;;
61385;SDS011;47256;18.904;-99.054;2024-03-23T11:48:18;18.80;;;11.80;;
61385;SDS011;47256;18.904;-99.054;2024-03-23T11:50:47;27.05;;;12.52;;
61385;SDS011;47256;18.904;-99.054;2024-03-23T11:53:20;20.70;;;11.40;;
61385;SDS011;47256;18.904;-99.054;2024-03-23T11:58:24;28.88;;;11.15;;
61385;SDS011;47256;18.904;-99.054;2024-03-23T12:00:58;24.88;;;11.25;;
61385;SDS011;47256;18.904;-99.054;2024-03-23T12:03:26;23.38;;;10.55;;
61385;SDS011;47256;18.904;-99.054;2024-03-23T12:06:00;27.42;;;11.68;;
61385;SDS011;47256;18.904;-99.054;2024-03-23T12:08:29;24.08;;;11.02;;
61385;SDS011;47256;18.904;-99.054;2024-03-23T12:13:34;38.10;;;12.00;;
61385;SDS011;47256;18.904;-99.054;2024-03-23T12:16:12;22.08;;;10.82;;
61385;SDS011;47256;18.904;-99.054;2024-03-23T12:18:42;21.88;;;9.93;;
61385;SDS011;47256;18.904;-99.054;2024-03-23T12:21:14;25.73;;;11.20;;
61385;SDS011;47256;18.904;-99.054;2024-03-23T12:23:43;25.90;;;10.88;;
61385;SDS011;47256;18.904;-99.054;2024-03-23T12:26:12;21.00;;;9.35;;
61385;SDS011;47256;18.904;-99.054;2024-03-23T12:28:39;22.45;;;9.63;;
61385;SDS011;47256;18.904;-99.054;2024-03-23T12:31:07;19.77;;;11.57;;
61385;SDS011;47256;18.904;-99.054;2024-03-23T12:33:35;32.42;;;13.07;;
61385;SDS011;47256;18.904;-99.054;2024-03-23T12:36:02;23.02;;;11.95;;
61385;SDS011;47256;18.904;-99.054;2024-03-23T12:38:30;32.75;;;13.35;;
61385;SDS011;47256;18.904;-99.054;2024-03-23T12:40:58;48.03;;;13.05;;
61385;SDS011;47256;18.904;-99.054;2024-03-23T12:43:26;38.03;;;13.30;;
61385;SDS011;47256;18.904;-99.054;2024-03-23T12:45:54;40.00;;;12.35;;
61385;SDS011;47256;18.904;-99.054;2024-03-23T12:48:22;36.97;;;11.77;;
61385;SDS011;47256;18.904;-99.054;2024-03-23T12:50:54;59.22;;;12.25;;
61385;SDS011;47256;18.904;-99.054;2024-03-23T12:53:21;71.68;;;13.73;;
61385;SDS011;47256;18.904;-99.054;2024-03-23T12:55:48;51.55;;;11.63;;
61385;SDS011;47256;18.904;-99.054;2024-03-23T12:58:16;41.70;;;11.35;;
61385;SDS011;47256;18.904;-99.054;2024-03-23T13:00:44;27.25;;;9.75;;
61385;SDS011;47256;18.904;-99.054;2024-03-23T13:03:13;42.45;;;10.40;;
61385;SDS011;47256;18.904;-99.054;2024-03-23T13:05:41;33.08;;;11.02;;
61385;SDS011;47256;18.904;-99.054;2024-03-23T13:08:10;33.83;;;10.55;;
61385;SDS011;47256;18.904;-99.054;2024-03-23T13:10:38;57.30;;;13.50;;
61385;SDS011;47256;18.904;-99.054;2024-03-23T13:13:07;42.83;;;9.63;;
61385;SDS011;47256;18.904;-99.054;2024-03-23T13:15:34;37.28;;;10.23;;
61385;SDS011;47256;18.904;-99.054;2024-03-23T13:18:02;52.45;;;11.32;;
61385;SDS011;47256;18.904;-99.054;2024-03-23T13:20:30;36.53;;;11.10;;
61385;SDS011;47256;18.904;-99.054;2024-03-23T13:22:58;38.17;;;10.30;;
61385;SDS011;47256;18.904;-99.054;2024-03-23T13:25:25;31.40;;;10.23;;
61385;SDS011;47256;18.904;-99.054;2024-03-23T13:27:52;39.78;;;10.02;;
61385;SDS011;47256;18.904;-99.054;2024-03-23T13:30:19;48.35;;;12.43;;
61385;SDS011;47256;18.904;-99.054;2024-03-23T13:32:46;45.45;;;9.95;;
61385;SDS011;47256;18.904;-99.054;2024-03-23T13:35:14;37.63;;;11.00;;
61385;SDS011;47256;18.904;-99.054;2024-03-23T13:37:42;44.20;;;12.10;;
61385;SDS011;47256;18.904;-99.054;2024-03-23T13:40:09;50.83;;;11.85;;
61385;SDS011;47256;18.904;-99.054;2024-03-23T13:42:41;62.60;;;16.08;;
61385;SDS011;47256;18.904;-99.054;2024-03-23T13:45:19;69.60;;;13.32;;
61385;SDS011;47256;18.904;-99.054;2024-03-23T13:47:48;45.08;;;12.98;;
61385;SDS011;47256;18.904;-99.054;2024-03-23T13:50:16;43.60;;;15.30;;
61385;SDS011;47256;18.904;-99.054;2024-03-23T13:52:43;43.22;;;14.18;;
61385;SDS011;47256;18.904;-99.054;2024-03-23T13:55:10;36.22;;;12.68;;
61385;SDS011;47256;18.904;-99.054;2024-03-23T13:57:41;35.60;;;11.93;;
61385;SDS011;47256;18.904;-99.054;2024-03-23T14:00:08;46.92;;;12.40;;
61385;SDS011;47256;18.904;-99.054;2024-03-23T14:02:41;61.22;;;14.88;;
61385;SDS011;47256;18.904;-99.054;2024-03-23T14:05:08;41.15;;;13.63;;
61385;SDS011;47256;18.904;-99.054;2024-03-23T14:07:37;40.25;;;13.82;;
61385;SDS011;47256;18.904;-99.054;2024-03-23T14:10:04;42.83;;;14.25;;
61385;SDS011;47256;18.904;-99.054;2024-03-23T14:12:39;34.58;;;12.95;;
61385;SDS011;47256;18.904;-99.054;2024-03-23T14:15:07;37.97;;;13.20;;
61385;SDS011;47256;18.904;-99.054;2024-03-23T14:17:37;38.75;;;13.40;;
61385;SDS011;47256;18.904;-99.054;2024-03-23T14:20:05;25.25;;;12.23;;
61385;SDS011;47256;18.904;-99.054;2024-03-23T14:22:37;29.85;;;11.85;;
61385;SDS011;47256;18.904;-99.054;2024-03-23T14:25:07;52.75;;;13.25;;
61385;SDS011;47256;18.904;-99.054;2024-03-23T14:27:34;39.40;;;12.80;;
61385;SDS011;47256;18.904;-99.054;2024-03-23T14:30:04;34.28;;;12.40;;
61385;SDS011;47256;18.904;-99.054;2024-03-23T14:32:33;28.20;;;12.27;;
61385;SDS011;47256;18.904;-99.054;2024-03-23T14:35:01;22.50;;;11.13;;
61385;SDS011;47256;18.904;-99.054;2024-03-23T14:37:30;30.02;;;11.00;;
61385;SDS011;47256;18.904;-99.054;2024-03-23T14:39:57;44.83;;;11.68;;
61385;SDS011;47256;18.904;-99.054;2024-03-23T14:42:26;34.53;;;13.02;;
61385;SDS011;47256;18.904;-99.054;2024-03-23T14:45:13;23.95;;;11.73;;
61385;SDS011;47256;18.904;-99.054;2024-03-23T14:47:42;27.02;;;11.80;;
61385;SDS011;47256;18.904;-99.054;2024-03-23T14:50:11;22.13;;;11.13;;
61385;SDS011;47256;18.904;-99.054;2024-03-23T14:52:47;24.05;;;12.25;;
61385;SDS011;47256;18.904;-99.054;2024-03-23T14:55:15;31.45;;;11.52;;
61385;SDS011;47256;18.904;-99.054;2024-03-23T14:57:43;36.58;;;12.82;;
61385;SDS011;47256;18.904;-99.054;2024-03-23T15:00:11;26.83;;;12.82;;
61385;SDS011;47256;18.904;-99.054;2024-03-23T15:02:39;42.95;;;20.20;;
61385;SDS011;47256;18.904;-99.054;2024-03-23T15:05:07;65.43;;;28.00;;
61385;SDS011;47256;18.904;-99.054;2024-03-23T15:07:36;74.80;;;38.00;;
61385;SDS011;47256;18.904;-99.054;2024-03-23T15:10:05;78.57;;;41.10;;
61385;SDS011;47256;18.904;-99.054;2024-03-23T15:12:36;65.90;;;35.65;;
61385;SDS011;47256;18.904;-99.054;2024-03-23T15:15:05;52.50;;;27.40;;
61385;SDS011;47256;18.904;-99.054;2024-03-23T15:17:34;37.38;;;20.30;;
61385;SDS011;47256;18.904;-99.054;2024-03-23T15:20:07;35.53;;;16.65;;
61385;SDS011;47256;18.904;-99.054;2024-03-23T15:22:37;25.67;;;12.88;;